Time;durP1;ratioP1;P1;durP2;ratioP2;P2;SDS_P1;SDS_P2;PMS_P1;PMS_P2;Temp;Humidity;BMP_temperature;BMP_pressure;BME280_temperature;BME280_humidity;BME280_pressure;Samples;Min_cycle;Max_cycle;Signal;HPM_P1;HPM_P2
2023/10/17 00:00:28;;;;;;;9.60;4.13;;;;;;;;;;5012888;28;20201;-39
2023/10/17 00:03:16;;;;;;;11.17;5.23;;;;;;;;;;5013360;28;20245;-39
2023/10/17 00:05:43;;;;;;;9.03;4.63;;;;;;;;;;5013096;28;20232;-39
2023/10/17 00:08:12;;;;;;;13.37;4.87;;;;;;;;;;5013333;28;20209;-40
2023/10/17 00:10:44;;;;;;;8.20;5.00;;;;;;;;;;5013155;28;20209;-40
2023/10/17 00:13:23;;;;;;;14.02;5.95;;;;;;;;;;5013288;28;20197;-39
2023/10/17 00:15:52;;;;;;;12.37;5.93;;;;;;;;;;5013090;28;20201;-39
2023/10/17 00:18:24;;;;;;;10.50;5.60;;;;;;;;;;5013255;28;20700;-39
2023/10/17 00:20:53;;;;;;;11.07;5.80;;;;;;;;;;5012833;28;20434;-39
2023/10/17 00:23:20;;;;;;;8.43;4.97;;;;;;;;;;5012993;28;20205;-39
2023/10/17 00:25:52;;;;;;;6.50;4.13;;;;;;;;;;5012643;28;20240;-39
2023/10/17 00:28:20;;;;;;;9.75;3.75;;;;;;;;;;5012842;28;20229;-39
2023/10/17 00:30:51;;;;;;;8.65;3.60;;;;;;;;;;4995049;28;20670;-39
2023/10/17 00:33:21;;;;;;;8.85;3.97;;;;;;;;;;5012970;28;20193;-39
2023/10/17 00:35:50;;;;;;;7.77;4.10;;;;;;;;;;5028017;28;20260;-39
2023/10/17 00:38:18;;;;;;;7.40;3.73;;;;;;;;;;5012766;28;20225;-39
2023/10/17 00:40:48;;;;;;;6.47;3.47;;;;;;;;;;5012792;28;20733;-39
2023/10/17 00:43:16;;;;;;;6.70;3.22;;;;;;;;;;4995370;28;20193;-39
2023/10/17 00:45:46;;;;;;;11.45;4.10;;;;;;;;;;5012662;28;20208;-39
2023/10/17 00:48:20;;;;;;;5.30;3.65;;;;;;;;;;5012736;28;20193;-40
2023/10/17 00:50:52;;;;;;;5.60;3.03;;;;;;;;;;5012739;28;20200;-39
2023/10/17 00:53:20;;;;;;;7.87;3.93;;;;;;;;;;4995152;28;20202;-39
2023/10/17 00:55:56;;;;;;;9.90;3.70;;;;;;;;;;4994524;28;20212;-40
2023/10/17 00:58:24;;;;;;;10.30;3.83;;;;;;;;;;5012170;28;20217;-39
2023/10/17 01:01:27;;;;;;;7.83;4.30;;;;;;;;;;5012382;28;20211;-39
2023/10/17 01:03:48;;;;;;;7.97;4.03;;;;;;;;;;5009734;28;20205;-39
2023/10/17 01:09:08;;;;;;;8.03;4.30;;;;;;;;;;5012087;28;20217;-41
2023/10/17 01:11:38;;;;;;;11.47;3.83;;;;;;;;;;5011437;28;20255;-39
2023/10/17 01:14:06;;;;;;;7.33;4.20;;;;;;;;;;4979207;28;20194;-39
2023/10/17 01:16:34;;;;;;;8.73;4.37;;;;;;;;;;5011975;28;20728;-39
2023/10/17 01:19:04;;;;;;;9.80;5.13;;;;;;;;;;5012097;28;20229;-39
2023/10/17 01:21:32;;;;;;;9.37;4.73;;;;;;;;;;5012290;28;20267;-39
2023/10/17 01:24:03;;;;;;;6.77;4.07;;;;;;;;;;5012055;28;20263;-39
2023/10/17 01:26:30;;;;;;;8.70;4.03;;;;;;;;;;4994374;28;20279;-39
2023/10/17 01:28:59;;;;;;;10.93;4.50;;;;;;;;;;5011701;28;20198;-41
2023/10/17 01:31:26;;;;;;;7.27;4.00;;;;;;;;;;5010674;28;20213;-39
2023/10/17 01:33:55;;;;;;;5.97;4.03;;;;;;;;;;5010251;28;20358;-39
2023/10/17 01:36:23;;;;;;;10.43;3.93;;;;;;;;;;5010409;28;20201;-39
2023/10/17 01:38:52;;;;;;;10.93;4.23;;;;;;;;;;5010715;28;20225;-39
2023/10/17 01:41:20;;;;;;;10.00;3.73;;;;;;;;;;5010109;28;20201;-40
2023/10/17 01:43:49;;;;;;;9.07;4.27;;;;;;;;;;5010402;28;20208;-39
2023/10/17 01:46:21;;;;;;;11.07;4.57;;;;;;;;;;5009165;28;20204;-41
2023/10/17 01:48:55;;;;;;;7.83;3.83;;;;;;;;;;5009064;28;20209;-39
2023/10/17 01:51:23;;;;;;;8.00;4.10;;;;;;;;;;5009308;28;20205;-38
2023/10/17 01:53:51;;;;;;;10.43;3.97;;;;;;;;;;5011867;28;20205;-39
2023/10/17 01:56:26;;;;;;;8.60;4.20;;;;;;;;;;5010531;28;20206;-39
2023/10/17 01:58:55;;;;;;;9.23;3.83;;;;;;;;;;5010656;28;20238;-39
2023/10/17 02:01:29;;;;;;;11.13;4.43;;;;;;;;;;4994325;28;20205;-39
2023/10/17 02:04:12;;;;;;;7.57;4.27;;;;;;;;;;5011816;28;20201;-39
2023/10/17 02:06:40;;;;;;;9.30;4.80;;;;;;;;;;5011917;28;20665;-40
2023/10/17 02:09:23;;;;;;;12.37;4.30;;;;;;;;;;5011725;28;20250;-39
2023/10/17 02:11:54;;;;;;;10.77;4.40;;;;;;;;;;5011504;28;20324;-39
2023/10/17 02:14:23;;;;;;;11.30;4.70;;;;;;;;;;5011735;28;20201;-39
2023/10/17 02:16:50;;;;;;;6.43;3.83;;;;;;;;;;5010401;28;20208;-39
2023/10/17 02:19:19;;;;;;;9.67;4.30;;;;;;;;;;5011231;28;20234;-39
2023/10/17 02:21:51;;;;;;;12.47;4.33;;;;;;;;;;5011598;28;20606;-40
2023/10/17 02:24:19;;;;;;;13.97;4.30;;;;;;;;;;5015000;28;20209;-39
2023/10/17 02:26:55;;;;;;;11.13;4.70;;;;;;;;;;5015425;28;20316;-39
2023/10/17 02:29:29;;;;;;;9.50;4.07;;;;;;;;;;5015376;28;20252;-39
2023/10/17 02:31:57;;;;;;;8.37;4.47;;;;;;;;;;5015440;28;20600;-39
2023/10/17 02:34:30;;;;;;;10.97;5.73;;;;;;;;;;5015128;28;20213;-39
2023/10/17 02:37:00;;;;;;;12.60;4.70;;;;;;;;;;5013908;28;20206;-39
2023/10/17 02:39:28;;;;;;;11.90;4.47;;;;;;;;;;5014983;28;20686;-39
2023/10/17 02:42:15;;;;;;;8.23;4.37;;;;;;;;;;5015273;28;20292;-39
2023/10/17 02:44:43;;;;;;;7.47;3.80;;;;;;;;;;5015108;28;20212;-39
2023/10/17 02:47:11;;;;;;;9.73;4.30;;;;;;;;;;5014745;28;20259;-39
2023/10/17 02:49:43;;;;;;;9.20;4.37;;;;;;;;;;5014594;28;20213;-39
2023/10/17 02:52:11;;;;;;;5.73;4.20;;;;;;;;;;5014573;28;20208;-39
2023/10/17 02:54:56;;;;;;;6.70;3.33;;;;;;;;;;5013510;28;20247;-39
2023/10/17 02:57:24;;;;;;;9.33;4.00;;;;;;;;;;5013776;28;20201;-39
2023/10/17 02:59:51;;;;;;;8.27;3.80;;;;;;;;;;5013467;28;20287;-39
2023/10/17 03:02:30;;;;;;;6.73;3.93;;;;;;;;;;5013149;28;20564;-39
2023/10/17 03:05:11;;;;;;;11.77;5.43;;;;;;;;;;5014242;28;20197;-39
2023/10/17 03:07:39;;;;;;;13.90;5.90;;;;;;;;;;5028254;28;20212;-39
2023/10/17 03:10:07;;;;;;;9.83;5.57;;;;;;;;;;5033987;28;20212;-40
2023/10/17 03:12:50;;;;;;;11.77;5.80;;;;;;;;;;5033877;28;20209;-39
2023/10/17 03:15:18;;;;;;;9.93;4.27;;;;;;;;;;5016294;28;20220;-39
2023/10/17 03:17:53;;;;;;;9.17;5.07;;;;;;;;;;5016042;28;20445;-39
2023/10/17 03:20:28;;;;;;;12.47;5.87;;;;;;;;;;5034009;28;20274;-39
2023/10/17 03:23:05;;;;;;;13.10;5.60;;;;;;;;;;5016498;28;20208;-39
2023/10/17 03:25:37;;;;;;;15.07;6.67;;;;;;;;;;5015949;28;20205;-39
2023/10/17 03:28:13;;;;;;;13.77;6.10;;;;;;;;;;5033801;28;20193;-39
2023/10/17 03:30:42;;;;;;;17.73;6.60;;;;;;;;;;5016096;28;20200;-39
2023/10/17 03:33:26;;;;;;;14.27;7.00;;;;;;;;;;5015716;28;20201;-39
2023/10/17 03:38:33;;;;;;;15.33;6.83;;;;;;;;;;4994177;28;20225;-41
2023/10/17 03:41:02;;;;;;;10.33;5.70;;;;;;;;;;5001459;28;20197;-40
2023/10/17 03:43:37;;;;;;;10.60;5.50;;;;;;;;;;5013956;28;20193;-39
2023/10/17 03:46:06;;;;;;;10.97;5.50;;;;;;;;;;5014049;28;20197;-40
2023/10/17 03:48:36;;;;;;;10.87;5.30;;;;;;;;;;5013523;28;20210;-41
2023/10/17 03:53:42;;;;;;;11.90;5.00;;;;;;;;;;5013666;28;20193;-39
2023/10/17 03:56:23;;;;;;;6.63;3.83;;;;;;;;;;5013220;28;20571;-39
2023/10/17 03:58:59;;;;;;;11.43;4.50;;;;;;;;;;5013543;28;20225;-40
2023/10/17 04:01:27;;;;;;;8.13;3.70;;;;;;;;;;5006089;28;20308;-41
2023/10/17 04:03:54;;;;;;;9.63;4.63;;;;;;;;;;5012632;28;20308;-39
2023/10/17 04:06:38;;;;;;;7.07;4.47;;;;;;;;;;5012769;28;20240;-40
2023/10/17 04:09:17;;;;;;;11.93;4.67;;;;;;;;;;5012935;28;20275;-39
2023/10/17 04:11:46;;;;;;;10.10;4.40;;;;;;;;;;5012566;28;20655;-40
2023/10/17 04:14:13;;;;;;;479.70;156.20;;;;;;;;;;5012332;28;20225;-39
2023/10/17 04:16:44;;;;;;;416.77;84.40;;;;;;;;;;5011948;28;20284;-39
2023/10/17 04:19:20;;;;;;;103.23;21.27;;;;;;;;;;5011837;28;20799;-39
2023/10/17 04:24:47;;;;;;;155.20;27.37;;;;;;;;;;5010048;28;20317;-39
2023/10/17 04:29:50;;;;;;;132.30;25.77;;;;;;;;;;5012269;28;20698;-40
2023/10/17 04:32:19;;;;;;;88.27;22.20;;;;;;;;;;5011751;28;20229;-39
2023/10/17 04:34:48;;;;;;;458.43;97.03;;;;;;;;;;5009999;28;20701;-40
2023/10/17 04:37:31;;;;;;;168.87;37.13;;;;;;;;;;5010860;28;20226;-39
2023/10/17 04:45:20;;;;;;;64.87;24.70;;;;;;;;;;5010744;28;20757;-40
2023/10/17 04:47:47;;;;;;;48.07;20.57;;;;;;;;;;5010373;28;20721;-39
2023/10/17 04:50:16;;;;;;;19.37;8.03;;;;;;;;;;5017352;28;20224;-40
2023/10/17 04:52:46;;;;;;;81.73;20.77;;;;;;;;;;5019518;28;20290;-41
2023/10/17 04:55:28;;;;;;;60.00;14.70;;;;;;;;;;5017311;28;20279;-40
2023/10/17 05:03:27;;;;;;;13.50;6.20;;;;;;;;;;4992414;28;20229;-40
2023/10/17 06:17:59;;;;;;;29.87;9.80;;;;;;;;;;5015351;28;20205;-39
2023/10/17 06:23:24;;;;;;;28.80;10.70;;;;;;;;;;5015118;28;20720;-40
2023/10/17 06:26:04;;;;;;;32.70;10.33;;;;;;;;;;5014706;28;20209;-40
2023/10/17 06:28:34;;;;;;;33.37;10.83;;;;;;;;;;5015198;28;20205;-39
2023/10/17 06:34:00;;;;;;;20.03;8.83;;;;;;;;;;5000308;28;20208;-39
2023/10/17 06:36:28;;;;;;;24.70;9.57;;;;;;;;;;5015085;28;20575;-39
2023/10/17 06:38:56;;;;;;;31.00;11.20;;;;;;;;;;5014688;28;20285;-39
2023/10/17 06:41:38;;;;;;;28.37;11.00;;;;;;;;;;5014834;28;20202;-39
2023/10/17 06:44:06;;;;;;;30.83;11.07;;;;;;;;;;5015014;28;20201;-39
2023/10/17 06:47:21;;;;;;;33.23;11.30;;;;;;;;;;5015003;28;20542;-40
2023/10/17 06:54:50;;;;;;;17.73;8.53;;;;;;;;;;5014696;28;20205;-40
2023/10/17 06:57:23;;;;;;;21.37;10.63;;;;;;;;;;5014517;28;20216;-39
2023/10/17 06:59:54;;;;;;;24.53;10.63;;;;;;;;;;5014481;28;20221;-39
2023/10/17 07:02:28;;;;;;;18.33;8.43;;;;;;;;;;5014718;28;20654;-40
2023/10/17 07:04:56;;;;;;;22.70;9.13;;;;;;;;;;4998203;28;20303;-40
2023/10/17 07:07:23;;;;;;;19.37;9.00;;;;;;;;;;5014506;28;20256;-41
2023/10/17 07:12:38;;;;;;;25.60;8.90;;;;;;;;;;5014175;28;20216;-40
2023/10/17 07:15:27;;;;;;;19.23;8.47;;;;;;;;;;5014098;28;20289;-40
2023/10/17 07:18:39;;;;;;;21.70;8.83;;;;;;;;;;5014351;28;20185;-40
2023/10/17 07:23:32;;;;;;;17.00;8.07;;;;;;;;;;5014046;28;20213;-40
2023/10/17 07:26:01;;;;;;;13.13;7.33;;;;;;;;;;5013919;28;20205;-40
2023/10/17 07:28:29;;;;;;;11.83;6.97;;;;;;;;;;5014053;28;20205;-39
2023/10/17 07:30:58;;;;;;;20.97;8.07;;;;;;;;;;5013770;28;20696;-39
2023/10/17 07:33:25;;;;;;;20.17;10.10;;;;;;;;;;5013993;28;20210;-40
2023/10/17 07:35:56;;;;;;;14.50;8.13;;;;;;;;;;5013614;28;20216;-40
2023/10/17 07:38:30;;;;;;;16.50;7.60;;;;;;;;;;5013935;28;20213;-40
2023/10/17 07:41:12;;;;;;;15.07;6.77;;;;;;;;;;5013651;28;20224;-40
2023/10/17 07:43:46;;;;;;;14.85;7.15;;;;;;;;;;5013567;28;20633;-39
2023/10/17 07:46:19;;;;;;;12.25;6.90;;;;;;;;;;5013542;28;20208;-39
2023/10/17 07:48:48;;;;;;;16.60;7.70;;;;;;;;;;5013790;28;20193;-40
2023/10/17 07:51:16;;;;;;;15.10;7.93;;;;;;;;;;5013826;28;20217;-39
2023/10/17 07:53:47;;;;;;;14.07;7.40;;;;;;;;;;5013699;28;20606;-40
2023/10/17 07:56:21;;;;;;;19.25;7.97;;;;;;;;;;4964172;28;20283;-40
2023/10/17 07:59:04;;;;;;;18.38;8.27;;;;;;;;;;5013566;28;20196;-39
2023/10/17 08:01:32;;;;;;;13.43;6.97;;;;;;;;;;5013628;28;20215;-40
2023/10/17 08:04:13;;;;;;;8.63;5.57;;;;;;;;;;5013274;28;20574;-40
2023/10/17 08:06:41;;;;;;;15.10;6.97;;;;;;;;;;5013556;28;20293;-40
2023/10/17 08:12:06;;;;;;;14.88;7.18;;;;;;;;;;5013247;28;20209;-40
2023/10/17 08:14:40;;;;;;;14.70;6.18;;;;;;;;;;5013518;28;20209;-40
2023/10/17 08:17:11;;;;;;;11.07;5.65;;;;;;;;;;5012896;28;20201;-42
2023/10/17 08:22:27;;;;;;;13.05;7.70;;;;;;;;;;5012800;28;20209;-40
2023/10/17 08:24:57;;;;;;;11.75;6.15;;;;;;;;;;5012960;28;20206;-40
2023/10/17 08:30:00;;;;;;;12.85;5.50;;;;;;;;;;5013184;28;20205;-41
2023/10/17 08:35:10;;;;;;;9.85;4.82;;;;;;;;;;5012644;28;20205;-40
2023/10/17 08:37:43;;;;;;;8.65;4.85;;;;;;;;;;5013024;28;20190;-41
2023/10/17 08:40:29;;;;;;;9.55;4.85;;;;;;;;;;5012530;28;20244;-40
2023/10/17 08:42:59;;;;;;;8.85;4.80;;;;;;;;;;5012760;28;20206;-40
2023/10/17 08:45:27;;;;;;;7.05;4.38;;;;;;;;;;5012458;28;20201;-39
2023/10/17 08:48:00;;;;;;;9.60;4.88;;;;;;;;;;5012870;28;20197;-40
2023/10/17 08:50:31;;;;;;;8.48;4.72;;;;;;;;;;5012473;28;20199;-42
2023/10/17 08:52:59;;;;;;;9.73;4.47;;;;;;;;;;5012830;28;20212;-40
2023/10/17 08:55:27;;;;;;;8.15;4.95;;;;;;;;;;5011422;28;20204;-40
2023/10/17 08:57:54;;;;;;;9.20;4.55;;;;;;;;;;5012400;28;20220;-40
2023/10/17 09:00:26;;;;;;;10.88;4.85;;;;;;;;;;5012506;28;20229;-40
2023/10/17 09:02:57;;;;;;;18.70;10.55;;;;;;;;;;5012300;28;20225;-40
2023/10/17 09:05:27;;;;;;;10.60;6.55;;;;;;;;;;5012222;28;20201;-40
2023/10/17 09:07:58;;;;;;;8.52;4.20;;;;;;;;;;5012436;28;20213;-40
2023/10/17 09:10:37;;;;;;;9.38;4.72;;;;;;;;;;5012328;28;20202;-40
2023/10/17 09:15:57;;;;;;;7.80;4.28;;;;;;;;;;5011913;28;20666;-40
2023/10/17 09:18:28;;;;;;;11.32;4.72;;;;;;;;;;5012394;28;20609;-40
2023/10/17 09:20:57;;;;;;;13.23;6.85;;;;;;;;;;5012053;28;20229;-40
2023/10/17 09:23:27;;;;;;;8.55;4.70;;;;;;;;;;5012210;28;20208;-39
2023/10/17 09:26:07;;;;;;;13.05;5.10;;;;;;;;;;5012196;28;20345;-39
2023/10/17 09:28:35;;;;;;;7.78;4.05;;;;;;;;;;5012081;28;20185;-39
2023/10/17 09:31:12;;;;;;;7.40;4.03;;;;;;;;;;5012141;28;20205;-40
2023/10/17 09:33:43;;;;;;;6.68;3.72;;;;;;;;;;5011194;28;20208;-39
2023/10/17 09:36:13;;;;;;;7.00;3.85;;;;;;;;;;5012147;28;20201;-39
2023/10/17 09:38:43;;;;;;;7.55;4.03;;;;;;;;;;5012023;28;20240;-40
2023/10/17 09:41:18;;;;;;;8.57;4.82;;;;;;;;;;5011985;28;20229;-40
2023/10/17 09:43:51;;;;;;;10.93;4.43;;;;;;;;;;5011620;28;20193;-39
2023/10/17 09:46:24;;;;;;;10.63;4.63;;;;;;;;;;5011773;28;20208;-39
2023/10/17 09:48:52;;;;;;;9.48;3.75;;;;;;;;;;5012106;28;20379;-41
2023/10/17 09:51:22;;;;;;;8.05;4.13;;;;;;;;;;5011596;28;20271;-39
2023/10/17 09:53:55;;;;;;;6.10;3.63;;;;;;;;;;5011735;28;20724;-40
2023/10/17 09:56:42;;;;;;;8.45;3.60;;;;;;;;;;5011850;28;20216;-39
2023/10/17 09:59:16;;;;;;;5.18;2.72;;;;;;;;;;5011424;28;20208;-39
2023/10/17 10:01:46;;;;;;;7.25;3.55;;;;;;;;;;5010327;28;20271;-40
2023/10/17 10:04:13;;;;;;;8.18;4.10;;;;;;;;;;5010744;28;20212;-39
2023/10/17 10:06:40;;;;;;;8.27;3.88;;;;;;;;;;5010416;28;20206;-40
2023/10/17 10:09:13;;;;;;;8.07;3.78;;;;;;;;;;5011676;28;20232;-39
2023/10/17 10:11:53;;;;;;;7.60;3.80;;;;;;;;;;5011633;28;20212;-40
2023/10/17 10:14:23;;;;;;;7.55;3.58;;;;;;;;;;5011453;28;20206;-40
2023/10/17 10:16:57;;;;;;;9.63;2.95;;;;;;;;;;5011744;28;20658;-40
2023/10/17 10:19:44;;;;;;;9.02;3.72;;;;;;;;;;5011409;28;20558;-40
2023/10/17 10:22:14;;;;;;;9.55;3.08;;;;;;;;;;5011467;28;20209;-40
2023/10/17 10:24:43;;;;;;;7.38;3.00;;;;;;;;;;5011160;28;20607;-40
2023/10/17 10:27:14;;;;;;;6.75;3.03;;;;;;;;;;5011410;28;20241;-40
2023/10/17 10:29:42;;;;;;;9.80;3.78;;;;;;;;;;5011048;28;20742;-40
2023/10/17 10:32:25;;;;;;;7.65;4.05;;;;;;;;;;5011325;28;20579;-40
2023/10/17 10:34:52;;;;;;;7.60;3.83;;;;;;;;;;5011263;28;20296;-39
2023/10/17 10:37:20;;;;;;;7.45;2.88;;;;;;;;;;5011525;28;20658;-37
2023/10/17 10:40:22;;;;;;;6.90;3.17;;;;;;;;;;5011514;28;20198;-40
2023/10/17 10:42:50;;;;;;;8.45;2.95;;;;;;;;;;5011627;28;20193;-37
2023/10/17 10:48:32;;;;;;;5.18;3.00;;;;;;;;;;4953886;29;20820;-39
2023/10/17 10:51:00;;;;;;;6.82;3.20;;;;;;;;;;4953752;29;20211;-40
2023/10/17 10:53:28;;;;;;;5.85;3.00;;;;;;;;;;4938071;29;20207;-40
2023/10/17 10:56:09;;;;;;;6.13;2.80;;;;;;;;;;4953568;29;20204;-40
2023/10/17 10:58:51;;;;;;;7.35;2.92;;;;;;;;;;4953657;29;20250;-37
2023/10/17 11:01:19;;;;;;;4.70;3.00;;;;;;;;;;4953379;29;20231;-37
2023/10/17 11:03:47;;;;;;;6.40;3.03;;;;;;;;;;4953539;29;20263;-38
2023/10/17 11:06:20;;;;;;;4.72;2.58;;;;;;;;;;4953480;29;20208;-37
2023/10/17 11:08:47;;;;;;;6.63;3.03;;;;;;;;;;4953508;29;20210;-38
2023/10/17 11:11:16;;;;;;;7.00;3.28;;;;;;;;;;4953313;29;20544;-38
2023/10/17 11:13:48;;;;;;;5.65;2.95;;;;;;;;;;4953447;29;20211;-37
2023/10/17 11:16:21;;;;;;;5.20;2.60;;;;;;;;;;4953296;29;20290;-37
2023/10/17 11:18:49;;;;;;;5.07;2.60;;;;;;;;;;4953258;29;20286;-37
2023/10/17 11:21:20;;;;;;;8.77;2.70;;;;;;;;;;4953220;29;20606;-37
2023/10/17 11:23:55;;;;;;;7.38;2.80;;;;;;;;;;4973325;28;20206;-37
2023/10/17 11:26:25;;;;;;;8.02;2.97;;;;;;;;;;5014150;28;20223;-38
2023/10/17 11:28:56;;;;;;;7.82;3.33;;;;;;;;;;5013973;28;20288;-38
2023/10/17 11:31:24;;;;;;;4.65;2.53;;;;;;;;;;5012670;28;20301;-37
2023/10/17 11:34:04;;;;;;;6.60;1.90;;;;;;;;;;5013804;28;20662;-37
2023/10/17 11:36:45;;;;;;;6.43;2.58;;;;;;;;;;5014217;28;20209;-37
2023/10/17 11:39:16;;;;;;;7.40;2.70;;;;;;;;;;5013744;28;20217;-40
2023/10/17 11:41:53;;;;;;;5.35;2.25;;;;;;;;;;5016618;28;20220;-37
2023/10/17 11:44:26;;;;;;;6.80;2.40;;;;;;;;;;5024976;28;20208;-38
2023/10/17 11:46:58;;;;;;;4.38;1.80;;;;;;;;;;5022429;28;20185;-42
2023/10/17 11:49:32;;;;;;;3.63;1.75;;;;;;;;;;5023223;28;20188;-38
2023/10/17 11:52:01;;;;;;;4.10;1.30;;;;;;;;;;5023928;28;20207;-37
2023/10/17 11:54:29;;;;;;;2.53;1.52;;;;;;;;;;5018967;28;20557;-37
2023/10/17 11:57:14;;;;;;;3.78;2.03;;;;;;;;;;5023441;28;20542;-39
2023/10/17 11:59:55;;;;;;;3.05;1.25;;;;;;;;;;5018671;28;20204;-41
2023/10/17 12:02:23;;;;;;;2.67;1.00;;;;;;;;;;5023021;28;20212;-42
2023/10/17 12:04:50;;;;;;;2.50;1.38;;;;;;;;;;5013304;28;20324;-40
2023/10/17 12:07:19;;;;;;;6.57;2.67;;;;;;;;;;5013136;28;20212;-39
2023/10/17 12:09:47;;;;;;;8.57;3.20;;;;;;;;;;5013082;28;20724;-39
2023/10/17 12:12:18;;;;;;;4.60;1.45;;;;;;;;;;5013008;28;20224;-39
2023/10/17 12:14:47;;;;;;;5.20;2.25;;;;;;;;;;5013388;28;20189;-39
2023/10/17 12:17:19;;;;;;;4.82;2.58;;;;;;;;;;5009534;28;20202;-60
2023/10/17 12:19:46;;;;;;;8.32;3.58;;;;;;;;;;5012975;28;20209;-60
2023/10/17 12:22:14;;;;;;;9.02;2.78;;;;;;;;;;5004738;28;20236;-58
2023/10/17 12:24:42;;;;;;;7.13;2.10;;;;;;;;;;5008526;28;20293;-47
2023/10/17 12:27:12;;;;;;;4.30;1.90;;;;;;;;;;5012777;28;20237;-51
2023/10/17 12:29:40;;;;;;;4.57;2.33;;;;;;;;;;4998612;28;20465;-53
2023/10/17 12:32:11;;;;;;;3.83;2.10;;;;;;;;;;4992890;28;20217;-47
2023/10/17 12:34:41;;;;;;;3.95;2.08;;;;;;;;;;4993392;28;20182;-70
2023/10/17 12:37:12;;;;;;;6.82;1.73;;;;;;;;;;5006604;28;20189;-51
2023/10/17 12:39:42;;;;;;;2.67;1.30;;;;;;;;;;5012564;28;20598;-49
2023/10/17 12:42:11;;;;;;;2.75;1.20;;;;;;;;;;5012061;28;20264;-48
2023/10/17 12:44:38;;;;;;;3.15;1.45;;;;;;;;;;5012749;28;20201;-49
2023/10/17 12:47:06;;;;;;;6.20;1.60;;;;;;;;;;5012793;28;20248;-49
2023/10/17 12:49:33;;;;;;;2.95;1.45;;;;;;;;;;5008088;28;20572;-59
2023/10/17 12:52:00;;;;;;;2.55;1.45;;;;;;;;;;5004032;28;20206;-55
2023/10/17 12:54:28;;;;;;;3.13;1.60;;;;;;;;;;5004422;28;20210;-55
2023/10/17 12:56:56;;;;;;;5.60;1.60;;;;;;;;;;5011051;28;20696;-55
2023/10/17 12:59:23;;;;;;;2.97;1.58;;;;;;;;;;5011703;28;20899;-58
2023/10/17 13:01:51;;;;;;;4.72;1.90;;;;;;;;;;5030727;28;20231;-52
2023/10/17 13:04:20;;;;;;;6.25;1.83;;;;;;;;;;5012028;28;20213;-53
2023/10/17 13:06:48;;;;;;;2.58;1.60;;;;;;;;;;5013046;28;20772;-51
2023/10/17 13:09:15;;;;;;;3.75;1.65;;;;;;;;;;5011887;28;20572;-49
2023/10/17 13:11:43;;;;;;;4.32;2.05;;;;;;;;;;5012046;28;20220;-49
2023/10/17 13:14:10;;;;;;;5.10;1.98;;;;;;;;;;4999822;28;20226;-50
2023/10/17 13:16:38;;;;;;;6.07;1.90;;;;;;;;;;5000849;28;20358;-51
2023/10/17 13:19:16;;;;;;;3.53;1.73;;;;;;;;;;4998469;28;20218;-51
2023/10/17 13:21:45;;;;;;;4.25;1.40;;;;;;;;;;5009346;28;20237;-48
2023/10/17 13:24:14;;;;;;;5.90;1.65;;;;;;;;;;5009695;28;20217;-46
2023/10/17 13:26:45;;;;;;;3.70;1.90;;;;;;;;;;5011125;28;20241;-46
2023/10/17 13:29:12;;;;;;;7.15;1.80;;;;;;;;;;5010913;28;20230;-47
2023/10/17 13:31:41;;;;;;;6.63;2.22;;;;;;;;;;5004361;28;20212;-52
2023/10/17 13:34:11;;;;;;;6.63;2.33;;;;;;;;;;5011657;28;20275;-46
2023/10/17 13:36:38;;;;;;;6.55;2.42;;;;;;;;;;5011075;28;20253;-48
2023/10/17 13:39:05;;;;;;;5.28;2.47;;;;;;;;;;5020042;28;20237;-44
2023/10/17 13:41:33;;;;;;;3.38;1.55;;;;;;;;;;5010380;28;20252;-49
2023/10/17 13:44:00;;;;;;;3.75;1.98;;;;;;;;;;5010112;28;20404;-46
2023/10/17 13:46:27;;;;;;;4.35;1.73;;;;;;;;;;5009369;28;20617;-48
2023/10/17 13:48:58;;;;;;;6.40;2.17;;;;;;;;;;5010414;28;20231;-45
2023/10/17 13:51:34;;;;;;;3.80;1.50;;;;;;;;;;5010781;28;20590;-48
2023/10/17 13:54:01;;;;;;;3.22;1.17;;;;;;;;;;5010193;28;20299;-52
2023/10/17 13:56:33;;;;;;;2.40;1.35;;;;;;;;;;5020466;28;20224;-46
2023/10/17 13:59:00;;;;;;;2.58;1.42;;;;;;;;;;5007864;28;20724;-47
2023/10/17 14:01:27;;;;;;;2.78;1.45;;;;;;;;;;5010070;28;20233;-45
2023/10/17 14:03:56;;;;;;;2.55;1.10;;;;;;;;;;5002242;28;20264;-50
2023/10/17 14:06:27;;;;;;;3.17;1.25;;;;;;;;;;5001624;28;20689;-45
2023/10/17 14:08:55;;;;;;;3.80;1.10;;;;;;;;;;5005064;28;20469;-48
2023/10/17 14:11:23;;;;;;;3.15;1.10;;;;;;;;;;5010926;28;20299;-50
2023/10/17 14:13:51;;;;;;;4.93;1.20;;;;;;;;;;5008160;28;20622;-50
2023/10/17 14:16:22;;;;;;;3.22;1.30;;;;;;;;;;4992463;28;20236;-46
2023/10/17 14:19:03;;;;;;;2.50;1.05;;;;;;;;;;5009184;28;20315;-48
2023/10/17 14:21:40;;;;;;;2.75;1.35;;;;;;;;;;5007367;28;20238;-43
2023/10/17 14:24:10;;;;;;;2.15;1.10;;;;;;;;;;5008292;28;20229;-47
2023/10/17 14:26:39;;;;;;;1.48;1.02;;;;;;;;;;5014260;28;20249;-48
2023/10/17 14:29:07;;;;;;;4.47;1.33;;;;;;;;;;5012779;28;20312;-47
2023/10/17 14:31:36;;;;;;;3.72;1.17;;;;;;;;;;4978097;28;20225;-51
2023/10/17 14:34:03;;;;;;;2.90;1.05;;;;;;;;;;5013277;28;20719;-51
2023/10/17 14:36:30;;;;;;;3.10;1.13;;;;;;;;;;5013695;28;20237;-48
2023/10/17 14:38:59;;;;;;;4.47;1.55;;;;;;;;;;5013686;28;20239;-45
2023/10/17 14:41:26;;;;;;;4.20;1.17;;;;;;;;;;5014003;28;20323;-50
2023/10/17 14:43:54;;;;;;;1.95;0.90;;;;;;;;;;5013147;28;20225;-50
2023/10/17 14:46:22;;;;;;;3.47;1.10;;;;;;;;;;5014060;28;20735;-47
2023/10/17 14:48:49;;;;;;;3.50;1.40;;;;;;;;;;5013786;28;20748;-46
2023/10/17 14:51:16;;;;;;;7.05;1.52;;;;;;;;;;5013459;28;20256;-45
2023/10/17 14:53:44;;;;;;;2.47;1.25;;;;;;;;;;5015860;28;20225;-46
2023/10/17 14:56:14;;;;;;;2.53;1.10;;;;;;;;;;5002802;28;20226;-47
2023/10/17 14:58:42;;;;;;;1.92;1.10;;;;;;;;;;5021396;28;20574;-45
2023/10/17 15:01:10;;;;;;;4.25;1.20;;;;;;;;;;5013753;28;20221;-48
2023/10/17 15:03:38;;;;;;;4.43;1.40;;;;;;;;;;5013948;28;20222;-50
2023/10/17 15:06:09;;;;;;;2.67;1.40;;;;;;;;;;5013295;28;20710;-52
2023/10/17 15:08:37;;;;;;;2.90;1.30;;;;;;;;;;5014002;28;20221;-48
2023/10/17 15:11:05;;;;;;;3.95;1.73;;;;;;;;;;5013294;28;20232;-58
2023/10/17 15:13:33;;;;;;;3.45;1.15;;;;;;;;;;5013304;28;20240;-50
2023/10/17 15:16:02;;;;;;;8.43;1.40;;;;;;;;;;5013652;28;20237;-53
2023/10/17 15:18:30;;;;;;;7.43;1.60;;;;;;;;;;5012212;28;20217;-51
2023/10/17 15:21:08;;;;;;;13.65;1.65;;;;;;;;;;5013082;28;20283;-54
2023/10/17 15:23:40;;;;;;;10.20;1.95;;;;;;;;;;5008250;28;20217;-51
2023/10/17 15:26:10;;;;;;;4.55;1.77;;;;;;;;;;5010962;28;20237;-51
2023/10/17 15:28:41;;;;;;;14.13;1.52;;;;;;;;;;5013147;28;20221;-54
2023/10/17 15:31:09;;;;;;;6.05;2.20;;;;;;;;;;5011338;28;20283;-57
2023/10/17 15:33:37;;;;;;;6.72;2.50;;;;;;;;;;5013042;28;20232;-56
2023/10/17 15:36:06;;;;;;;5.03;1.98;;;;;;;;;;5012971;28;20232;-54
2023/10/17 15:38:33;;;;;;;8.18;2.35;;;;;;;;;;5012801;28;20232;-57
2023/10/17 15:41:00;;;;;;;8.07;2.65;;;;;;;;;;4995854;28;20264;-57
2023/10/17 15:43:27;;;;;;;8.43;2.65;;;;;;;;;;5012588;28;20233;-53
2023/10/17 15:45:55;;;;;;;7.47;3.30;;;;;;;;;;5016931;28;20282;-55
2023/10/17 15:48:27;;;;;;;16.95;5.35;;;;;;;;;;5026660;28;20221;-56
2023/10/17 15:50:56;;;;;;;13.68;4.57;;;;;;;;;;5013441;28;20236;-55
2023/10/17 15:53:27;;;;;;;12.98;7.00;;;;;;;;;;5021443;28;20686;-57
2023/10/17 15:55:56;;;;;;;24.98;10.80;;;;;;;;;;5021177;28;20213;-51
2023/10/17 15:58:26;;;;;;;19.48;8.13;;;;;;;;;;5023953;28;20819;-58
2023/10/17 16:00:57;;;;;;;15.25;7.20;;;;;;;;;;5016414;28;20225;-52
2023/10/17 16:03:24;;;;;;;16.20;5.72;;;;;;;;;;5016728;28;20236;-55
2023/10/17 16:05:54;;;;;;;10.55;4.35;;;;;;;;;;5017687;28;20304;-58
2023/10/17 16:08:23;;;;;;;8.85;3.83;;;;;;;;;;5015756;28;20208;-58
2023/10/17 16:10:53;;;;;;;157.95;46.28;;;;;;;;;;5024071;28;20216;-53
2023/10/17 16:13:21;;;;;;;119.82;31.48;;;;;;;;;;4996196;28;20217;-54
2023/10/17 16:15:56;;;;;;;7.18;3.20;;;;;;;;;;5016045;28;20222;-56
2023/10/17 16:18:23;;;;;;;37.00;9.48;;;;;;;;;;5011045;28;20637;-53
2023/10/17 16:20:51;;;;;;;88.95;20.73;;;;;;;;;;5011415;28;20225;-55
2023/10/17 16:23:18;;;;;;;50.85;12.98;;;;;;;;;;5011347;28;20237;-57
2023/10/17 16:25:49;;;;;;;20.65;6.70;;;;;;;;;;5019470;28;20220;-54
2023/10/17 16:28:17;;;;;;;4.22;1.98;;;;;;;;;;5027021;28;20236;-55
2023/10/17 16:30:45;;;;;;;17.13;6.07;;;;;;;;;;5011853;28;20740;-52
2023/10/17 16:33:14;;;;;;;32.60;9.77;;;;;;;;;;5011138;28;20261;-52
2023/10/17 16:35:44;;;;;;;82.35;23.33;;;;;;;;;;5011617;28;20225;-56
2023/10/17 16:38:14;;;;;;;79.50;18.98;;;;;;;;;;5011276;28;20265;-55
2023/10/17 16:40:47;;;;;;;47.47;11.88;;;;;;;;;;5011440;28;20579;-55
2023/10/17 16:43:14;;;;;;;29.23;8.80;;;;;;;;;;5011008;28;20243;-52
2023/10/17 16:45:47;;;;;;;20.88;7.47;;;;;;;;;;5011418;28;20225;-57
2023/10/17 16:48:16;;;;;;;9.50;3.45;;;;;;;;;;5011584;28;20237;-56
2023/10/17 16:50:48;;;;;;;13.50;3.97;;;;;;;;;;5011820;28;20229;-56
2023/10/17 16:53:15;;;;;;;24.92;7.53;;;;;;;;;;5010308;28;20312;-55
2023/10/17 16:55:43;;;;;;;26.50;7.35;;;;;;;;;;5009996;28;20222;-55
2023/10/17 16:58:10;;;;;;;43.97;11.15;;;;;;;;;;5010853;28;20221;-51
2023/10/17 17:00:38;;;;;;;23.10;7.47;;;;;;;;;;5011093;28;20454;-55
2023/10/17 17:03:05;;;;;;;57.83;16.50;;;;;;;;;;4993542;28;20257;-52
2023/10/17 17:05:32;;;;;;;16.17;6.13;;;;;;;;;;5011279;28;20217;-54
2023/10/17 17:07:59;;;;;;;21.73;7.97;;;;;;;;;;5010405;28;20248;-53